sensor_id;sensor_type;location;lat;lon;timestamp;P1;durP1;ratioP1;P2;durP2;ratioP2
75021;SDS011;63583;49.976;20.182;2024-02-26T00:00:03;15.73;;;8.07;;
75021;SDS011;63583;49.976;20.182;2024-02-26T00:02:30;16.30;;;8.70;;
75021;SDS011;63583;49.976;20.182;2024-02-26T00:04:59;13.70;;;8.25;;
75021;SDS011;63583;49.976;20.182;2024-02-26T00:07:24;13.48;;;7.22;;
75021;SDS011;63583;49.976;20.182;2024-02-26T00:09:50;14.23;;;8.25;;
75021;SDS011;63583;49.976;20.182;2024-02-26T00:12:16;16.35;;;8.65;;
75021;SDS011;63583;49.976;20.182;2024-02-26T00:14:42;16.55;;;8.95;;
75021;SDS011;63583;49.976;20.182;2024-02-26T00:17:07;17.23;;;9.07;;
75021;SDS011;63583;49.976;20.182;2024-02-26T00:19:34;14.43;;;7.95;;
75021;SDS011;63583;49.976;20.182;2024-02-26T00:22:00;17.08;;;8.70;;
75021;SDS011;63583;49.976;20.182;2024-02-26T00:24:27;13.90;;;7.55;;
75021;SDS011;63583;49.976;20.182;2024-02-26T00:26:52;14.23;;;7.93;;
75021;SDS011;63583;49.976;20.182;2024-02-26T00:29:18;14.75;;;7.93;;
75021;SDS011;63583;49.976;20.182;2024-02-26T00:31:45;15.23;;;8.93;;
75021;SDS011;63583;49.976;20.182;2024-02-26T00:34:11;17.42;;;9.55;;
75021;SDS011;63583;49.976;20.182;2024-02-26T00:36:37;15.02;;;9.63;;
75021;SDS011;63583;49.976;20.182;2024-02-26T00:39:03;16.55;;;9.90;;
75021;SDS011;63583;49.976;20.182;2024-02-26T00:41:29;17.40;;;9.38;;
75021;SDS011;63583;49.976;20.182;2024-02-26T00:43:55;14.05;;;7.88;;
75021;SDS011;63583;49.976;20.182;2024-02-26T00:46:21;14.52;;;6.93;;
75021;SDS011;63583;49.976;20.182;2024-02-26T00:48:47;13.35;;;7.03;;
75021;SDS011;63583;49.976;20.182;2024-02-26T00:51:12;11.40;;;7.25;;
75021;SDS011;63583;49.976;20.182;2024-02-26T00:53:38;11.32;;;5.85;;
75021;SDS011;63583;49.976;20.182;2024-02-26T00:56:04;9.27;;;6.38;;
75021;SDS011;63583;49.976;20.182;2024-02-26T00:58:30;10.80;;;5.88;;
75021;SDS011;63583;49.976;20.182;2024-02-26T01:00:56;10.80;;;6.72;;
75021;SDS011;63583;49.976;20.182;2024-02-26T01:03:22;12.75;;;6.18;;
75021;SDS011;63583;49.976;20.182;2024-02-26T01:05:47;10.57;;;5.47;;
75021;SDS011;63583;49.976;20.182;2024-02-26T01:08:13;10.40;;;6.10;;
75021;SDS011;63583;49.976;20.182;2024-02-26T01:10:39;10.35;;;5.93;;
75021;SDS011;63583;49.976;20.182;2024-02-26T01:13:05;10.48;;;5.75;;
75021;SDS011;63583;49.976;20.182;2024-02-26T01:15:32;10.05;;;5.32;;
75021;SDS011;63583;49.976;20.182;2024-02-26T01:17:58;8.63;;;5.35;;
75021;SDS011;63583;49.976;20.182;2024-02-26T01:20:24;8.27;;;5.00;;
75021;SDS011;63583;49.976;20.182;2024-02-26T01:22:50;8.10;;;5.05;;
75021;SDS011;63583;49.976;20.182;2024-02-26T01:25:16;11.15;;;5.70;;
75021;SDS011;63583;49.976;20.182;2024-02-26T01:27:42;10.52;;;5.53;;
75021;SDS011;63583;49.976;20.182;2024-02-26T01:30:09;10.02;;;5.32;;
75021;SDS011;63583;49.976;20.182;2024-02-26T01:32:35;14.68;;;6.93;;
75021;SDS011;63583;49.976;20.182;2024-02-26T01:35:01;13.82;;;7.75;;
75021;SDS011;63583;49.976;20.182;2024-02-26T01:37:29;14.85;;;8.18;;
75021;SDS011;63583;49.976;20.182;2024-02-26T01:39:57;13.57;;;7.88;;
75021;SDS011;63583;49.976;20.182;2024-02-26T01:42:23;15.45;;;7.97;;
75021;SDS011;63583;49.976;20.182;2024-02-26T01:44:49;11.90;;;6.80;;
75021;SDS011;63583;49.976;20.182;2024-02-26T01:47:15;9.43;;;5.80;;
75021;SDS011;63583;49.976;20.182;2024-02-26T01:49:40;7.70;;;4.28;;
75021;SDS011;63583;49.976;20.182;2024-02-26T01:52:08;6.00;;;4.15;;
75021;SDS011;63583;49.976;20.182;2024-02-26T01:54:35;9.20;;;4.90;;
75021;SDS011;63583;49.976;20.182;2024-02-26T01:57:03;7.70;;;4.47;;
75021;SDS011;63583;49.976;20.182;2024-02-26T01:59:30;9.65;;;5.00;;
75021;SDS011;63583;49.976;20.182;2024-02-26T02:01:58;7.88;;;4.60;;
75021;SDS011;63583;49.976;20.182;2024-02-26T02:04:27;8.38;;;4.57;;
75021;SDS011;63583;49.976;20.182;2024-02-26T02:06:53;8.68;;;5.05;;
75021;SDS011;63583;49.976;20.182;2024-02-26T02:09:19;9.30;;;5.55;;
75021;SDS011;63583;49.976;20.182;2024-02-26T02:11:46;10.65;;;5.47;;
75021;SDS011;63583;49.976;20.182;2024-02-26T02:14:13;9.23;;;5.40;;
75021;SDS011;63583;49.976;20.182;2024-02-26T02:16:40;8.93;;;4.97;;
75021;SDS011;63583;49.976;20.182;2024-02-26T02:19:06;7.88;;;4.68;;
75021;SDS011;63583;49.976;20.182;2024-02-26T02:21:31;7.60;;;4.47;;
75021;SDS011;63583;49.976;20.182;2024-02-26T02:23:57;7.25;;;4.72;;
75021;SDS011;63583;49.976;20.182;2024-02-26T02:26:23;10.02;;;5.28;;
75021;SDS011;63583;49.976;20.182;2024-02-26T02:28:49;9.02;;;5.10;;
75021;SDS011;63583;49.976;20.182;2024-02-26T02:31:15;8.20;;;5.00;;
75021;SDS011;63583;49.976;20.182;2024-02-26T02:33:41;8.85;;;4.75;;
75021;SDS011;63583;49.976;20.182;2024-02-26T02:36:07;8.15;;;5.07;;
75021;SDS011;63583;49.976;20.182;2024-02-26T02:38:36;10.05;;;4.97;;
75021;SDS011;63583;49.976;20.182;2024-02-26T02:41:13;8.98;;;5.53;;
75021;SDS011;63583;49.976;20.182;2024-02-26T02:43:39;8.45;;;5.07;;
75021;SDS011;63583;49.976;20.182;2024-02-26T02:46:05;10.65;;;6.07;;
75021;SDS011;63583;49.976;20.182;2024-02-26T02:48:30;9.80;;;5.20;;
75021;SDS011;63583;49.976;20.182;2024-02-26T02:50:56;11.38;;;6.03;;
75021;SDS011;63583;49.976;20.182;2024-02-26T02:53:22;12.13;;;6.53;;
75021;SDS011;63583;49.976;20.182;2024-02-26T02:55:48;11.82;;;7.22;;
75021;SDS011;63583;49.976;20.182;2024-02-26T02:58:13;12.52;;;7.35;;
75021;SDS011;63583;49.976;20.182;2024-02-26T03:00:39;11.70;;;7.65;;
75021;SDS011;63583;49.976;20.182;2024-02-26T03:03:05;15.27;;;8.30;;
75021;SDS011;63583;49.976;20.182;2024-02-26T03:05:31;13.88;;;8.10;;
75021;SDS011;63583;49.976;20.182;2024-02-26T03:07:57;15.15;;;8.77;;
75021;SDS011;63583;49.976;20.182;2024-02-26T03:10:23;15.52;;;9.65;;
75021;SDS011;63583;49.976;20.182;2024-02-26T03:12:49;14.93;;;8.10;;
75021;SDS011;63583;49.976;20.182;2024-02-26T03:15:15;12.85;;;8.30;;
75021;SDS011;63583;49.976;20.182;2024-02-26T03:17:41;15.93;;;8.40;;
75021;SDS011;63583;49.976;20.182;2024-02-26T03:20:08;13.98;;;8.10;;
75021;SDS011;63583;49.976;20.182;2024-02-26T03:22:35;15.90;;;9.13;;
75021;SDS011;63583;49.976;20.182;2024-02-26T03:25:01;19.75;;;10.70;;
75021;SDS011;63583;49.976;20.182;2024-02-26T03:27:26;17.25;;;12.30;;
75021;SDS011;63583;49.976;20.182;2024-02-26T03:29:52;14.48;;;8.60;;
75021;SDS011;63583;49.976;20.182;2024-02-26T03:32:18;11.63;;;6.68;;
75021;SDS011;63583;49.976;20.182;2024-02-26T03:34:44;12.00;;;6.43;;
75021;SDS011;63583;49.976;20.182;2024-02-26T03:37:10;11.90;;;6.10;;
75021;SDS011;63583;49.976;20.182;2024-02-26T03:39:36;9.27;;;5.95;;
75021;SDS011;63583;49.976;20.182;2024-02-26T03:42:02;8.27;;;5.32;;
75021;SDS011;63583;49.976;20.182;2024-02-26T03:44:29;10.15;;;6.22;;
75021;SDS011;63583;49.976;20.182;2024-02-26T03:46:54;11.65;;;6.13;;
75021;SDS011;63583;49.976;20.182;2024-02-26T03:49:21;11.82;;;5.78;;
75021;SDS011;63583;49.976;20.182;2024-02-26T03:51:47;10.23;;;5.97;;
75021;SDS011;63583;49.976;20.182;2024-02-26T03:54:14;10.98;;;6.30;;
75021;SDS011;63583;49.976;20.182;2024-02-26T03:56:39;15.25;;;7.65;;
75021;SDS011;63583;49.976;20.182;2024-02-26T03:59:05;12.73;;;7.00;;
75021;SDS011;63583;49.976;20.182;2024-02-26T04:01:31;13.60;;;7.10;;
75021;SDS011;63583;49.976;20.182;2024-02-26T04:03:57;11.77;;;6.32;;
75021;SDS011;63583;49.976;20.182;2024-02-26T04:06:22;9.80;;;5.82;;
75021;SDS011;63583;49.976;20.182;2024-02-26T04:08:49;12.10;;;6.28;;
75021;SDS011;63583;49.976;20.182;2024-02-26T04:11:14;11.23;;;6.25;;
75021;SDS011;63583;49.976;20.182;2024-02-26T04:13:43;11.05;;;6.22;;
75021;SDS011;63583;49.976;20.182;2024-02-26T04:16:15;12.25;;;6.00;;
75021;SDS011;63583;49.976;20.182;2024-02-26T04:18:42;11.23;;;6.30;;
75021;SDS011;63583;49.976;20.182;2024-02-26T04:21:08;13.45;;;6.85;;
75021;SDS011;63583;49.976;20.182;2024-02-26T04:23:33;10.65;;;6.32;;
75021;SDS011;63583;49.976;20.182;2024-02-26T04:25:59;12.68;;;6.78;;
75021;SDS011;63583;49.976;20.182;2024-02-26T04:28:25;12.00;;;6.93;;
75021;SDS011;63583;49.976;20.182;2024-02-26T04:30:54;12.23;;;7.15;;
75021;SDS011;63583;49.976;20.182;2024-02-26T04:33:20;14.02;;;6.68;;
75021;SDS011;63583;49.976;20.182;2024-02-26T04:35:46;10.70;;;5.53;;
75021;SDS011;63583;49.976;20.182;2024-02-26T04:38:12;14.52;;;7.10;;
75021;SDS011;63583;49.976;20.182;2024-02-26T04:40:38;12.98;;;7.25;;
75021;SDS011;63583;49.976;20.182;2024-02-26T04:43:04;15.05;;;7.78;;
75021;SDS011;63583;49.976;20.182;2024-02-26T04:45:29;15.40;;;8.13;;
75021;SDS011;63583;49.976;20.182;2024-02-26T04:47:55;14.70;;;8.38;;
75021;SDS011;63583;49.976;20.182;2024-02-26T04:50:21;12.02;;;7.13;;
75021;SDS011;63583;49.976;20.182;2024-02-26T04:52:47;13.75;;;6.95;;
75021;SDS011;63583;49.976;20.182;2024-02-26T04:55:12;14.57;;;7.15;;
75021;SDS011;63583;49.976;20.182;2024-02-26T04:57:38;15.73;;;7.35;;
75021;SDS011;63583;49.976;20.182;2024-02-26T05:00:04;12.63;;;6.65;;
75021;SDS011;63583;49.976;20.182;2024-02-26T05:02:31;10.75;;;6.22;;
75021;SDS011;63583;49.976;20.182;2024-02-26T05:04:58;9.90;;;5.40;;
75021;SDS011;63583;49.976;20.182;2024-02-26T05:07:24;11.57;;;6.18;;
75021;SDS011;63583;49.976;20.182;2024-02-26T05:09:50;10.48;;;5.40;;
75021;SDS011;63583;49.976;20.182;2024-02-26T05:12:16;11.07;;;6.18;;
75021;SDS011;63583;49.976;20.182;2024-02-26T05:14:42;10.68;;;5.68;;
75021;SDS011;63583;49.976;20.182;2024-02-26T05:17:08;11.00;;;6.38;;
75021;SDS011;63583;49.976;20.182;2024-02-26T05:19:34;10.90;;;6.00;;
75021;SDS011;63583;49.976;20.182;2024-02-26T05:22:00;11.60;;;6.10;;
75021;SDS011;63583;49.976;20.182;2024-02-26T05:24:25;10.20;;;6.18;;
75021;SDS011;63583;49.976;20.182;2024-02-26T05:26:53;12.57;;;5.93;;
75021;SDS011;63583;49.976;20.182;2024-02-26T05:29:19;11.07;;;5.93;;
75021;SDS011;63583;49.976;20.182;2024-02-26T05:31:45;10.93;;;6.55;;
75021;SDS011;63583;49.976;20.182;2024-02-26T05:34:11;11.60;;;5.88;;
75021;SDS011;63583;49.976;20.182;2024-02-26T05:36:37;10.27;;;6.13;;
75021;SDS011;63583;49.976;20.182;2024-02-26T05:39:03;10.13;;;5.43;;
75021;SDS011;63583;49.976;20.182;2024-02-26T05:41:29;9.55;;;5.40;;
75021;SDS011;63583;49.976;20.182;2024-02-26T05:43:55;10.80;;;6.18;;
75021;SDS011;63583;49.976;20.182;2024-02-26T05:46:21;10.23;;;6.47;;
75021;SDS011;63583;49.976;20.182;2024-02-26T05:48:48;12.05;;;6.35;;
75021;SDS011;63583;49.976;20.182;2024-02-26T05:51:17;12.82;;;6.70;;
75021;SDS011;63583;49.976;20.182;2024-02-26T05:53:42;10.52;;;5.15;;
75021;SDS011;63583;49.976;20.182;2024-02-26T05:56:09;8.82;;;5.63;;
75021;SDS011;63583;49.976;20.182;2024-02-26T05:58:34;9.98;;;5.70;;
75021;SDS011;63583;49.976;20.182;2024-02-26T06:01:00;9.80;;;5.75;;
75021;SDS011;63583;49.976;20.182;2024-02-26T06:03:26;12.35;;;6.82;;
75021;SDS011;63583;49.976;20.182;2024-02-26T06:05:52;12.05;;;7.28;;
75021;SDS011;63583;49.976;20.182;2024-02-26T06:08:18;12.57;;;6.85;;
75021;SDS011;63583;49.976;20.182;2024-02-26T06:10:44;11.68;;;7.00;;
75021;SDS011;63583;49.976;20.182;2024-02-26T06:13:10;9.50;;;5.18;;
75021;SDS011;63583;49.976;20.182;2024-02-26T06:15:36;10.15;;;4.88;;
75021;SDS011;63583;49.976;20.182;2024-02-26T06:18:02;9.30;;;4.43;;
75021;SDS011;63583;49.976;20.182;2024-02-26T06:20:28;7.60;;;4.10;;
75021;SDS011;63583;49.976;20.182;2024-02-26T06:22:54;7.93;;;3.72;;
75021;SDS011;63583;49.976;20.182;2024-02-26T06:25:20;6.55;;;3.92;;
75021;SDS011;63583;49.976;20.182;2024-02-26T06:27:45;7.53;;;3.97;;
75021;SDS011;63583;49.976;20.182;2024-02-26T06:30:11;10.82;;;6.13;;
75021;SDS011;63583;49.976;20.182;2024-02-26T06:32:37;11.77;;;5.68;;
75021;SDS011;63583;49.976;20.182;2024-02-26T06:35:03;10.13;;;5.97;;
75021;SDS011;63583;49.976;20.182;2024-02-26T06:37:34;11.43;;;6.97;;
75021;SDS011;63583;49.976;20.182;2024-02-26T06:40:00;12.40;;;7.45;;
75021;SDS011;63583;49.976;20.182;2024-02-26T06:42:29;13.63;;;7.22;;
75021;SDS011;63583;49.976;20.182;2024-02-26T06:44:56;12.60;;;7.15;;
75021;SDS011;63583;49.976;20.182;2024-02-26T06:47:22;13.73;;;7.65;;
75021;SDS011;63583;49.976;20.182;2024-02-26T06:49:48;12.82;;;7.18;;
75021;SDS011;63583;49.976;20.182;2024-02-26T06:52:13;9.75;;;6.05;;
75021;SDS011;63583;49.976;20.182;2024-02-26T06:54:39;9.27;;;5.85;;
75021;SDS011;63583;49.976;20.182;2024-02-26T06:57:05;9.60;;;4.47;;
75021;SDS011;63583;49.976;20.182;2024-02-26T06:59:31;7.63;;;4.40;;
75021;SDS011;63583;49.976;20.182;2024-02-26T07:01:56;8.20;;;4.43;;
75021;SDS011;63583;49.976;20.182;2024-02-26T07:04:22;8.55;;;4.80;;
75021;SDS011;63583;49.976;20.182;2024-02-26T07:06:48;6.60;;;3.80;;
75021;SDS011;63583;49.976;20.182;2024-02-26T07:09:14;6.30;;;4.03;;
75021;SDS011;63583;49.976;20.182;2024-02-26T07:11:40;7.50;;;3.80;;
75021;SDS011;63583;49.976;20.182;2024-02-26T07:14:11;7.93;;;4.25;;
75021;SDS011;63583;49.976;20.182;2024-02-26T07:16:37;7.40;;;4.10;;
75021;SDS011;63583;49.976;20.182;2024-02-26T07:19:03;9.98;;;5.65;;
75021;SDS011;63583;49.976;20.182;2024-02-26T07:21:29;9.68;;;5.60;;
75021;SDS011;63583;49.976;20.182;2024-02-26T07:23:56;8.40;;;5.22;;
75021;SDS011;63583;49.976;20.182;2024-02-26T07:26:21;11.90;;;5.63;;
75021;SDS011;63583;49.976;20.182;2024-02-26T07:28:50;10.98;;;6.35;;
75021;SDS011;63583;49.976;20.182;2024-02-26T07:31:17;11.35;;;6.57;;
75021;SDS011;63583;49.976;20.182;2024-02-26T07:33:43;10.50;;;6.28;;
75021;SDS011;63583;49.976;20.182;2024-02-26T07:36:10;10.07;;;5.80;;
75021;SDS011;63583;49.976;20.182;2024-02-26T07:38:35;8.35;;;5.07;;
75021;SDS011;63583;49.976;20.182;2024-02-26T07:41:02;8.38;;;4.85;;
75021;SDS011;63583;49.976;20.182;2024-02-26T07:43:28;10.40;;;5.43;;
75021;SDS011;63583;49.976;20.182;2024-02-26T07:45:54;10.05;;;5.68;;
75021;SDS011;63583;49.976;20.182;2024-02-26T07:48:20;10.88;;;6.13;;
75021;SDS011;63583;49.976;20.182;2024-02-26T07:50:46;12.07;;;6.40;;
75021;SDS011;63583;49.976;20.182;2024-02-26T07:53:12;11.55;;;6.72;;
75021;SDS011;63583;49.976;20.182;2024-02-26T07:55:38;12.80;;;6.75;;
75021;SDS011;63583;49.976;20.182;2024-02-26T07:58:04;9.98;;;5.53;;
75021;SDS011;63583;49.976;20.182;2024-02-26T08:00:30;8.77;;;5.20;;
75021;SDS011;63583;49.976;20.182;2024-02-26T08:02:56;6.10;;;2.78;;
75021;SDS011;63583;49.976;20.182;2024-02-26T08:05:22;7.57;;;3.40;;
75021;SDS011;63583;49.976;20.182;2024-02-26T08:07:48;5.22;;;3.60;;
75021;SDS011;63583;49.976;20.182;2024-02-26T08:10:13;6.40;;;3.50;;
75021;SDS011;63583;49.976;20.182;2024-02-26T08:12:40;5.57;;;3.83;;
75021;SDS011;63583;49.976;20.182;2024-02-26T08:15:06;5.97;;;3.72;;
75021;SDS011;63583;49.976;20.182;2024-02-26T08:17:33;6.53;;;3.55;;
75021;SDS011;63583;49.976;20.182;2024-02-26T08:19:59;5.50;;;3.63;;
75021;SDS011;63583;49.976;20.182;2024-02-26T08:22:28;7.38;;;4.00;;
75021;SDS011;63583;49.976;20.182;2024-02-26T08:24:53;7.32;;;3.80;;
75021;SDS011;63583;49.976;20.182;2024-02-26T08:27:19;6.50;;;3.67;;
75021;SDS011;63583;49.976;20.182;2024-02-26T08:29:45;6.05;;;3.75;;
75021;SDS011;63583;49.976;20.182;2024-02-26T08:32:11;6.55;;;3.90;;
75021;SDS011;63583;49.976;20.182;2024-02-26T08:34:37;7.18;;;4.07;;
75021;SDS011;63583;49.976;20.182;2024-02-26T08:37:03;6.97;;;4.47;;
75021;SDS011;63583;49.976;20.182;2024-02-26T08:39:29;8.50;;;4.68;;
75021;SDS011;63583;49.976;20.182;2024-02-26T08:41:56;8.40;;;4.25;;
75021;SDS011;63583;49.976;20.182;2024-02-26T08:44:22;5.90;;;3.58;;
75021;SDS011;63583;49.976;20.182;2024-02-26T08:46:48;5.50;;;3.33;;
75021;SDS011;63583;49.976;20.182;2024-02-26T08:49:14;6.63;;;3.70;;
75021;SDS011;63583;49.976;20.182;2024-02-26T08:51:44;4.13;;;2.70;;
75021;SDS011;63583;49.976;20.182;2024-02-26T08:54:10;4.20;;;2.10;;
75021;SDS011;63583;49.976;20.182;2024-02-26T08:56:37;3.75;;;1.90;;
75021;SDS011;63583;49.976;20.182;2024-02-26T08:59:02;3.45;;;1.80;;
75021;SDS011;63583;49.976;20.182;2024-02-26T09:01:30;4.35;;;2.00;;
75021;SDS011;63583;49.976;20.182;2024-02-26T09:03:57;3.58;;;2.03;;
75021;SDS011;63583;49.976;20.182;2024-02-26T09:06:23;3.28;;;1.85;;
75021;SDS011;63583;49.976;20.182;2024-02-26T09:08:49;4.30;;;1.90;;
75021;SDS011;63583;49.976;20.182;2024-02-26T09:11:15;3.17;;;1.80;;
75021;SDS011;63583;49.976;20.182;2024-02-26T09:13:41;3.95;;;1.90;;
75021;SDS011;63583;49.976;20.182;2024-02-26T09:16:08;3.17;;;2.00;;
75021;SDS011;63583;49.976;20.182;2024-02-26T09:18:33;4.25;;;1.83;;
75021;SDS011;63583;49.976;20.182;2024-02-26T09:20:59;4.55;;;2.35;;
75021;SDS011;63583;49.976;20.182;2024-02-26T09:23:25;5.55;;;2.80;;
75021;SDS011;63583;49.976;20.182;2024-02-26T09:25:51;8.63;;;3.92;;
75021;SDS011;63583;49.976;20.182;2024-02-26T09:28:16;6.22;;;2.83;;
75021;SDS011;63583;49.976;20.182;2024-02-26T09:30:43;4.88;;;2.50;;
75021;SDS011;63583;49.976;20.182;2024-02-26T09:33:09;5.32;;;3.40;;
75021;SDS011;63583;49.976;20.182;2024-02-26T09:35:35;4.57;;;2.63;;
75021;SDS011;63583;49.976;20.182;2024-02-26T09:38:01;5.05;;;2.58;;
75021;SDS011;63583;49.976;20.182;2024-02-26T09:40:27;6.68;;;2.97;;
75021;SDS011;63583;49.976;20.182;2024-02-26T09:42:53;6.50;;;2.30;;
75021;SDS011;63583;49.976;20.182;2024-02-26T09:45:25;4.22;;;2.72;;
75021;SDS011;63583;49.976;20.182;2024-02-26T09:47:52;5.88;;;3.00;;
75021;SDS011;63583;49.976;20.182;2024-02-26T09:50:21;6.03;;;3.75;;
75021;SDS011;63583;49.976;20.182;2024-02-26T09:52:50;5.93;;;3.42;;
75021;SDS011;63583;49.976;20.182;2024-02-26T09:57:45;3.97;;;2.15;;
75021;SDS011;63583;49.976;20.182;2024-02-26T10:00:17;4.15;;;2.33;;
75021;SDS011;63583;49.976;20.182;2024-02-26T10:02:47;5.38;;;2.50;;
75021;SDS011;63583;49.976;20.182;2024-02-26T10:05:14;4.07;;;2.20;;
75021;SDS011;63583;49.976;20.182;2024-02-26T10:07:44;5.45;;;2.85;;
75021;SDS011;63583;49.976;20.182;2024-02-26T10:10:12;5.10;;;2.65;;
75021;SDS011;63583;49.976;20.182;2024-02-26T10:12:39;4.50;;;2.90;;
75021;SDS011;63583;49.976;20.182;2024-02-26T10:15:05;4.35;;;2.88;;
75021;SDS011;63583;49.976;20.182;2024-02-26T10:17:31;5.25;;;2.80;;
75021;SDS011;63583;49.976;20.182;2024-02-26T10:20:14;7.25;;;2.83;;
75021;SDS011;63583;49.976;20.182;2024-02-26T10:22:44;5.35;;;2.30;;
75021;SDS011;63583;49.976;20.182;2024-02-26T10:25:10;4.18;;;2.20;;
75021;SDS011;63583;49.976;20.182;2024-02-26T10:27:36;3.10;;;1.98;;
75021;SDS011;63583;49.976;20.182;2024-02-26T10:30:18;4.97;;;2.72;;
75021;SDS011;63583;49.976;20.182;2024-02-26T10:32:46;3.55;;;2.10;;
75021;SDS011;63583;49.976;20.182;2024-02-26T10:35:13;4.65;;;2.28;;
75021;SDS011;63583;49.976;20.182;2024-02-26T10:37:40;4.97;;;2.50;;
75021;SDS011;63583;49.976;20.182;2024-02-26T10:40:16;4.22;;;2.55;;
75021;SDS011;63583;49.976;20.182;2024-02-26T10:42:42;5.38;;;2.65;;
75021;SDS011;63583;49.976;20.182;2024-02-26T10:45:09;5.82;;;3.17;;
75021;SDS011;63583;49.976;20.182;2024-02-26T10:47:35;4.38;;;2.70;;
75021;SDS011;63583;49.976;20.182;2024-02-26T10:50:02;4.85;;;2.80;;
75021;SDS011;63583;49.976;20.182;2024-02-26T10:52:32;4.60;;;2.78;;
75021;SDS011;63583;49.976;20.182;2024-02-26T10:55:03;6.13;;;2.33;;
75021;SDS011;63583;49.976;20.182;2024-02-26T10:57:35;4.43;;;2.15;;
75021;SDS011;63583;49.976;20.182;2024-02-26T11:00:05;5.15;;;2.15;;
75021;SDS011;63583;49.976;20.182;2024-02-26T11:02:34;3.58;;;1.60;;
75021;SDS011;63583;49.976;20.182;2024-02-26T11:05:02;4.45;;;2.20;;
75021;SDS011;63583;49.976;20.182;2024-02-26T11:07:31;4.90;;;2.08;;
75021;SDS011;63583;49.976;20.182;2024-02-26T11:10:01;3.75;;;2.25;;
75021;SDS011;63583;49.976;20.182;2024-02-26T11:12:29;2.85;;;1.85;;
75021;SDS011;63583;49.976;20.182;2024-02-26T11:14:57;3.47;;;2.50;;
75021;SDS011;63583;49.976;20.182;2024-02-26T11:17:26;5.20;;;2.38;;
75021;SDS011;63583;49.976;20.182;2024-02-26T11:19:57;7.03;;;2.70;;
75021;SDS011;63583;49.976;20.182;2024-02-26T11:22:25;4.50;;;2.75;;
75021;SDS011;63583;49.976;20.182;2024-02-26T11:24:54;6.18;;;2.58;;
75021;SDS011;63583;49.976;20.182;2024-02-26T11:27:44;5.47;;;2.85;;
75021;SDS011;63583;49.976;20.182;2024-02-26T11:30:14;6.32;;;3.30;;
75021;SDS011;63583;49.976;20.182;2024-02-26T11:32:48;9.70;;;3.90;;
75021;SDS011;63583;49.976;20.182;2024-02-26T11:35:14;8.65;;;4.00;;
75021;SDS011;63583;49.976;20.182;2024-02-26T11:37:51;10.05;;;4.00;;
75021;SDS011;63583;49.976;20.182;2024-02-26T11:40:18;8.40;;;3.90;;
75021;SDS011;63583;49.976;20.182;2024-02-26T11:42:44;6.72;;;3.10;;
75021;SDS011;63583;49.976;20.182;2024-02-26T11:48:10;3.88;;;2.60;;
75021;SDS011;63583;49.976;20.182;2024-02-26T11:50:40;5.47;;;2.80;;
75021;SDS011;63583;49.976;20.182;2024-02-26T11:53:35;6.43;;;3.50;;
75021;SDS011;63583;49.976;20.182;2024-02-26T11:58:42;3.80;;;2.50;;
75021;SDS011;63583;49.976;20.182;2024-02-26T12:04:19;5.72;;;3.15;;
75021;SDS011;63583;49.976;20.182;2024-02-26T12:06:49;5.15;;;2.95;;
75021;SDS011;63583;49.976;20.182;2024-02-26T12:11:59;6.38;;;4.05;;
75021;SDS011;63583;49.976;20.182;2024-02-26T12:14:26;6.80;;;3.83;;
75021;SDS011;63583;49.976;20.182;2024-02-26T12:16:53;5.63;;;3.65;;
75021;SDS011;63583;49.976;20.182;2024-02-26T12:19:20;5.53;;;3.80;;
75021;SDS011;63583;49.976;20.182;2024-02-26T12:21:51;7.32;;;5.13;;
75021;SDS011;63583;49.976;20.182;2024-02-26T12:24:18;6.75;;;3.75;;
75021;SDS011;63583;49.976;20.182;2024-02-26T12:26:45;7.50;;;4.43;;
75021;SDS011;63583;49.976;20.182;2024-02-26T12:29:11;8.98;;;5.07;;
75021;SDS011;63583;49.976;20.182;2024-02-26T12:31:38;5.05;;;3.42;;
75021;SDS011;63583;49.976;20.182;2024-02-26T12:34:05;6.43;;;4.10;;
75021;SDS011;63583;49.976;20.182;2024-02-26T12:36:33;5.53;;;4.07;;
75021;SDS011;63583;49.976;20.182;2024-02-26T12:39:00;5.82;;;3.88;;
75021;SDS011;63583;49.976;20.182;2024-02-26T12:41:27;5.50;;;3.70;;
75021;SDS011;63583;49.976;20.182;2024-02-26T12:43:55;6.15;;;4.40;;
75021;SDS011;63583;49.976;20.182;2024-02-26T12:46:21;5.90;;;3.95;;
75021;SDS011;63583;49.976;20.182;2024-02-26T12:48:48;5.15;;;3.95;;
75021;SDS011;63583;49.976;20.182;2024-02-26T12:51:14;4.88;;;3.50;;
75021;SDS011;63583;49.976;20.182;2024-02-26T12:53:41;5.70;;;4.18;;
75021;SDS011;63583;49.976;20.182;2024-02-26T12:56:09;7.35;;;4.57;;
75021;SDS011;63583;49.976;20.182;2024-02-26T12:58:37;6.40;;;3.83;;
75021;SDS011;63583;49.976;20.182;2024-02-26T13:01:05;5.38;;;3.92;;
75021;SDS011;63583;49.976;20.182;2024-02-26T13:03:32;6.90;;;4.03;;
75021;SDS011;63583;49.976;20.182;2024-02-26T13:06:00;6.05;;;4.03;;
75021;SDS011;63583;49.976;20.182;2024-02-26T13:08:26;6.07;;;4.10;;
75021;SDS011;63583;49.976;20.182;2024-02-26T13:10:52;6.20;;;4.25;;
75021;SDS011;63583;49.976;20.182;2024-02-26T13:13:18;7.55;;;4.60;;
75021;SDS011;63583;49.976;20.182;2024-02-26T13:15:45;5.70;;;4.07;;
75021;SDS011;63583;49.976;20.182;2024-02-26T13:18:12;9.02;;;4.47;;
75021;SDS011;63583;49.976;20.182;2024-02-26T13:20:40;7.85;;;4.38;;
75021;SDS011;63583;49.976;20.182;2024-02-26T13:23:07;6.32;;;4.78;;
75021;SDS011;63583;49.976;20.182;2024-02-26T13:25:38;6.88;;;4.68;;
75021;SDS011;63583;49.976;20.182;2024-02-26T13:28:07;7.60;;;5.28;;
75021;SDS011;63583;49.976;20.182;2024-02-26T13:30:51;7.03;;;5.43;;
75021;SDS011;63583;49.976;20.182;2024-02-26T13:33:18;8.77;;;5.80;;
75021;SDS011;63583;49.976;20.182;2024-02-26T13:35:44;8.68;;;6.30;;
75021;SDS011;63583;49.976;20.182;2024-02-26T13:38:10;8.27;;;6.10;;
75021;SDS011;63583;49.976;20.182;2024-02-26T13:40:37;8.18;;;6.30;;
75021;SDS011;63583;49.976;20.182;2024-02-26T13:43:04;12.55;;;8.05;;
75021;SDS011;63583;49.976;20.182;2024-02-26T13:45:30;9.23;;;7.05;;
75021;SDS011;63583;49.976;20.182;2024-02-26T13:48:02;11.50;;;7.97;;
75021;SDS011;63583;49.976;20.182;2024-02-26T13:50:28;10.10;;;6.72;;
75021;SDS011;63583;49.976;20.182;2024-02-26T13:52:54;10.38;;;6.82;;
75021;SDS011;63583;49.976;20.182;2024-02-26T13:55:22;8.32;;;6.75;;
75021;SDS011;63583;49.976;20.182;2024-02-26T13:57:49;14.60;;;9.48;;
75021;SDS011;63583;49.976;20.182;2024-02-26T14:00:17;14.38;;;10.15;;
75021;SDS011;63583;49.976;20.182;2024-02-26T14:02:43;12.75;;;9.52;;
75021;SDS011;63583;49.976;20.182;2024-02-26T14:05:09;11.18;;;7.82;;
75021;SDS011;63583;49.976;20.182;2024-02-26T14:07:35;11.77;;;8.15;;
75021;SDS011;63583;49.976;20.182;2024-02-26T14:10:01;10.13;;;7.50;;
75021;SDS011;63583;49.976;20.182;2024-02-26T14:12:27;11.40;;;8.45;;
75021;SDS011;63583;49.976;20.182;2024-02-26T14:14:53;12.73;;;8.60;;
75021;SDS011;63583;49.976;20.182;2024-02-26T14:17:23;11.70;;;8.38;;
75021;SDS011;63583;49.976;20.182;2024-02-26T14:19:50;14.73;;;8.18;;
75021;SDS011;63583;49.976;20.182;2024-02-26T14:22:15;10.98;;;7.97;;
75021;SDS011;63583;49.976;20.182;2024-02-26T14:24:42;13.45;;;8.23;;
75021;SDS011;63583;49.976;20.182;2024-02-26T14:27:08;12.73;;;8.18;;
75021;SDS011;63583;49.976;20.182;2024-02-26T14:29:35;11.98;;;9.10;;
75021;SDS011;63583;49.976;20.182;2024-02-26T14:32:03;14.35;;;9.65;;
75021;SDS011;63583;49.976;20.182;2024-02-26T14:34:29;14.23;;;8.80;;
75021;SDS011;63583;49.976;20.182;2024-02-26T14:36:55;13.13;;;9.50;;
75021;SDS011;63583;49.976;20.182;2024-02-26T14:39:21;11.27;;;8.55;;